Terminal Aerodrome Forecast
Issued by NWS Portland, OR

Home | Current Version | Previous Version | Text Only | Print | Product List | Glossary On
Versions: 1 2 3 4 5 6 7 8 9 10 11 12 13 14 15 16 17 18 19 20 21 22 23 24 25 26 27 28 29 30
178
FTUS46 KPQR 172235 AAA
TAFTTD
TAF AMD
KTTD 172235Z 1723/1818 09030G38KT 3SM -FZRA OVC060 WS015/19035KT
     FM181200 09025G35KT 5SM -FZRA BR BKN030 OVC050=

USA.gov is the U.S. government's official web portal to all federal, state and local government web resources and services.